sensor_id;sensor_type;location;lat;lon;timestamp;P1;P2;P0
62547;PMS7003;48602;45.192;5.722;2022-12-18T00:02:11;56.00;44.67;31.33
62547;PMS7003;48602;45.192;5.722;2022-12-18T00:04:37;54.67;44.00;32.67
62547;PMS7003;48602;45.192;5.722;2022-12-18T00:07:02;60.00;47.00;32.67
62547;PMS7003;48602;45.192;5.722;2022-12-18T00:09:28;55.00;43.00;29.33
62547;PMS7003;48602;45.192;5.722;2022-12-18T00:11:53;46.33;39.00;28.00
62547;PMS7003;48602;45.192;5.722;2022-12-18T00:14:19;53.67;41.00;26.67
62547;PMS7003;48602;45.192;5.722;2022-12-18T00:16:44;56.00;39.00;28.33
62547;PMS7003;48602;45.192;5.722;2022-12-18T00:19:11;56.67;45.33;30.67
62547;PMS7003;48602;45.192;5.722;2022-12-18T00:21:38;52.33;43.00;30.00
62547;PMS7003;48602;45.192;5.722;2022-12-18T00:24:04;51.67;42.33;29.67
62547;PMS7003;48602;45.192;5.722;2022-12-18T00:26:31;54.67;41.33;30.67
62547;PMS7003;48602;45.192;5.722;2022-12-18T00:29:02;43.67;39.67;26.33
62547;PMS7003;48602;45.192;5.722;2022-12-18T00:31:32;52.67;39.00;28.33
62547;PMS7003;48602;45.192;5.722;2022-12-18T00:33:57;50.67;43.67;31.00
62547;PMS7003;48602;45.192;5.722;2022-12-18T00:36:24;54.33;44.00;29.33
62547;PMS7003;48602;45.192;5.722;2022-12-18T00:38:52;57.00;43.67;30.00
62547;PMS7003;48602;45.192;5.722;2022-12-18T00:41:20;53.33;43.00;29.33
62547;PMS7003;48602;45.192;5.722;2022-12-18T00:44:05;48.00;42.67;30.00
62547;PMS7003;48602;45.192;5.722;2022-12-18T00:46:32;52.67;41.33;29.33
62547;PMS7003;48602;45.192;5.722;2022-12-18T00:48:58;49.67;39.33;27.00
62547;PMS7003;48602;45.192;5.722;2022-12-18T00:51:24;49.33;39.00;30.00
62547;PMS7003;48602;45.192;5.722;2022-12-18T00:53:50;54.67;42.67;28.67
62547;PMS7003;48602;45.192;5.722;2022-12-18T00:56:15;47.33;39.67;29.67
62547;PMS7003;48602;45.192;5.722;2022-12-18T00:58:40;58.67;45.33;30.00
62547;PMS7003;48602;45.192;5.722;2022-12-18T01:01:06;51.00;37.00;28.33
62547;PMS7003;48602;45.192;5.722;2022-12-18T01:03:32;45.33;38.33;28.67
62547;PMS7003;48602;45.192;5.722;2022-12-18T01:05:57;42.00;38.67;25.67
62547;PMS7003;48602;45.192;5.722;2022-12-18T01:08:23;60.00;46.67;31.00
62547;PMS7003;48602;45.192;5.722;2022-12-18T01:10:48;49.33;41.33;28.00
62547;PMS7003;48602;45.192;5.722;2022-12-18T01:13:14;44.67;40.00;30.00
62547;PMS7003;48602;45.192;5.722;2022-12-18T01:15:39;45.00;37.00;26.33
62547;PMS7003;48602;45.192;5.722;2022-12-18T01:18:05;55.00;42.00;28.33
62547;PMS7003;48602;45.192;5.722;2022-12-18T01:20:31;48.33;41.00;26.67
62547;PMS7003;48602;45.192;5.722;2022-12-18T01:22:57;44.33;36.33;26.00
62547;PMS7003;48602;45.192;5.722;2022-12-18T01:25:23;39.33;37.67;27.67
62547;PMS7003;48602;45.192;5.722;2022-12-18T01:27:48;44.00;38.00;27.33
62547;PMS7003;48602;45.192;5.722;2022-12-18T01:30:14;48.33;38.00;26.00
62547;PMS7003;48602;45.192;5.722;2022-12-18T01:32:40;45.00;41.00;28.33
62547;PMS7003;48602;45.192;5.722;2022-12-18T01:35:05;50.00;40.33;26.00
62547;PMS7003;48602;45.192;5.722;2022-12-18T01:37:31;39.00;38.67;26.67
62547;PMS7003;48602;45.192;5.722;2022-12-18T01:39:56;42.33;39.33;26.00
62547;PMS7003;48602;45.192;5.722;2022-12-18T01:42:22;39.00;34.33;26.00
62547;PMS7003;48602;45.192;5.722;2022-12-18T01:45:01;42.00;38.00;26.00
62547;PMS7003;48602;45.192;5.722;2022-12-18T01:49:56;36.33;33.67;24.33
62547;PMS7003;48602;45.192;5.722;2022-12-18T01:52:25;38.33;35.67;25.00
62547;PMS7003;48602;45.192;5.722;2022-12-18T01:54:53;32.33;31.33;24.00
62547;PMS7003;48602;45.192;5.722;2022-12-18T01:57:20;34.33;33.33;24.00
62547;PMS7003;48602;45.192;5.722;2022-12-18T01:59:47;33.67;33.33;26.00
62547;PMS7003;48602;45.192;5.722;2022-12-18T02:02:17;46.67;39.33;27.00
62547;PMS7003;48602;45.192;5.722;2022-12-18T02:04:44;46.33;40.00;22.67
62547;PMS7003;48602;45.192;5.722;2022-12-18T02:10:20;42.33;36.33;26.00
62547;PMS7003;48602;45.192;5.722;2022-12-18T02:12:55;39.67;37.33;23.33
62547;PMS7003;48602;45.192;5.722;2022-12-18T02:15:34;22.67;17.00;13.67
62547;PMS7003;48602;45.192;5.722;2022-12-18T02:18:08;51.33;42.00;27.67
62547;PMS7003;48602;45.192;5.722;2022-12-18T02:29:13;50.33;40.33;28.67
62547;PMS7003;48602;45.192;5.722;2022-12-18T02:31:44;48.33;37.00;26.00
62547;PMS7003;48602;45.192;5.722;2022-12-18T02:34:15;49.67;40.67;28.33
62547;PMS7003;48602;45.192;5.722;2022-12-18T02:36:43;51.67;42.67;29.33
62547;PMS7003;48602;45.192;5.722;2022-12-18T02:39:11;45.67;39.33;30.00
62547;PMS7003;48602;45.192;5.722;2022-12-18T02:41:40;51.67;41.67;28.00
62547;PMS7003;48602;45.192;5.722;2022-12-18T02:44:07;45.67;39.67;29.00
62547;PMS7003;48602;45.192;5.722;2022-12-18T02:46:37;39.33;38.67;26.33
62547;PMS7003;48602;45.192;5.722;2022-12-18T02:49:21;45.67;38.00;26.33
62547;PMS7003;48602;45.192;5.722;2022-12-18T02:54:52;39.33;36.67;26.00
62547;PMS7003;48602;45.192;5.722;2022-12-18T03:00:37;49.33;42.33;30.00
62547;PMS7003;48602;45.192;5.722;2022-12-18T03:05:41;50.00;41.67;29.00
62547;PMS7003;48602;45.192;5.722;2022-12-18T03:08:22;51.33;44.67;29.67
62547;PMS7003;48602;45.192;5.722;2022-12-18T03:10:57;53.33;42.00;29.00
62547;PMS7003;48602;45.192;5.722;2022-12-18T03:13:33;48.67;38.00;28.67
62547;PMS7003;48602;45.192;5.722;2022-12-18T03:16:01;34.33;29.67;23.00
62547;PMS7003;48602;45.192;5.722;2022-12-18T03:21:00;36.00;28.67;21.33
62547;PMS7003;48602;45.192;5.722;2022-12-18T03:23:32;29.00;26.33;20.67
62547;PMS7003;48602;45.192;5.722;2022-12-18T03:26:05;30.33;26.33;18.33
62547;PMS7003;48602;45.192;5.722;2022-12-18T03:28:42;31.00;28.33;21.00
62547;PMS7003;48602;45.192;5.722;2022-12-18T03:31:12;32.33;29.67;23.33
62547;PMS7003;48602;45.192;5.722;2022-12-18T03:33:41;30.00;23.00;17.67
62547;PMS7003;48602;45.192;5.722;2022-12-18T03:36:16;30.33;25.33;18.33
62547;PMS7003;48602;45.192;5.722;2022-12-18T03:38:42;39.00;25.00;18.67
62547;PMS7003;48602;45.192;5.722;2022-12-18T03:43:49;32.00;28.00;20.67
62547;PMS7003;48602;45.192;5.722;2022-12-18T03:46:28;27.00;25.33;20.33
62547;PMS7003;48602;45.192;5.722;2022-12-18T03:49:08;35.67;28.67;22.33
62547;PMS7003;48602;45.192;5.722;2022-12-18T03:54:13;27.00;21.67;14.00
62547;PMS7003;48602;45.192;5.722;2022-12-18T03:56:42;31.00;26.33;20.67
62547;PMS7003;48602;45.192;5.722;2022-12-18T03:59:11;27.67;22.67;19.67
62547;PMS7003;48602;45.192;5.722;2022-12-18T04:01:39;24.67;22.67;19.67
62547;PMS7003;48602;45.192;5.722;2022-12-18T04:04:10;29.00;25.00;20.67
62547;PMS7003;48602;45.192;5.722;2022-12-18T04:06:37;34.33;28.33;21.67
62547;PMS7003;48602;45.192;5.722;2022-12-18T04:09:05;30.33;25.00;20.67
62547;PMS7003;48602;45.192;5.722;2022-12-18T04:11:31;36.33;26.00;19.33
62547;PMS7003;48602;45.192;5.722;2022-12-18T04:13:57;32.33;31.33;24.00
62547;PMS7003;48602;45.192;5.722;2022-12-18T04:16:24;34.33;32.00;24.00
62547;PMS7003;48602;45.192;5.722;2022-12-18T04:18:52;45.67;34.67;25.33
62547;PMS7003;48602;45.192;5.722;2022-12-18T04:21:19;42.00;31.00;22.67
62547;PMS7003;48602;45.192;5.722;2022-12-18T04:23:45;35.67;31.00;22.67
62547;PMS7003;48602;45.192;5.722;2022-12-18T04:26:10;30.00;26.33;20.00
62547;PMS7003;48602;45.192;5.722;2022-12-18T04:28:36;43.67;32.67;24.33
62547;PMS7003;48602;45.192;5.722;2022-12-18T04:31:01;30.33;28.00;20.00
62547;PMS7003;48602;45.192;5.722;2022-12-18T04:33:27;28.00;25.00;18.00
62547;PMS7003;48602;45.192;5.722;2022-12-18T04:35:52;24.33;22.00;18.00
62547;PMS7003;48602;45.192;5.722;2022-12-18T04:38:18;26.00;23.33;18.33
62547;PMS7003;48602;45.192;5.722;2022-12-18T04:40:43;27.67;24.33;17.67
62547;PMS7003;48602;45.192;5.722;2022-12-18T04:43:09;30.33;24.00;16.00
62547;PMS7003;48602;45.192;5.722;2022-12-18T04:45:34;18.33;17.00;11.33
62547;PMS7003;48602;45.192;5.722;2022-12-18T04:48:00;30.67;24.33;17.67
62547;PMS7003;48602;45.192;5.722;2022-12-18T04:50:27;36.33;27.33;18.33
62547;PMS7003;48602;45.192;5.722;2022-12-18T04:52:53;34.00;26.33;20.00
62547;PMS7003;48602;45.192;5.722;2022-12-18T04:55:19;33.67;27.00;20.33
62547;PMS7003;48602;45.192;5.722;2022-12-18T04:57:45;29.00;24.33;16.33
62547;PMS7003;48602;45.192;5.722;2022-12-18T05:00:10;27.00;25.33;17.00
62547;PMS7003;48602;45.192;5.722;2022-12-18T05:02:36;21.00;20.67;16.67
62547;PMS7003;48602;45.192;5.722;2022-12-18T05:05:02;25.67;23.33;18.00
62547;PMS7003;48602;45.192;5.722;2022-12-18T05:07:27;26.33;26.33;20.67
62547;PMS7003;48602;45.192;5.722;2022-12-18T05:09:53;28.33;24.33;17.67
62547;PMS7003;48602;45.192;5.722;2022-12-18T05:12:18;28.00;26.33;19.67
62547;PMS7003;48602;45.192;5.722;2022-12-18T05:14:44;26.00;20.67;14.00
62547;PMS7003;48602;45.192;5.722;2022-12-18T05:17:09;28.67;26.00;16.67
62547;PMS7003;48602;45.192;5.722;2022-12-18T05:19:35;23.00;20.67;16.67
62547;PMS7003;48602;45.192;5.722;2022-12-18T05:22:00;31.67;28.00;23.00
62547;PMS7003;48602;45.192;5.722;2022-12-18T05:24:26;36.33;27.67;21.00
62547;PMS7003;48602;45.192;5.722;2022-12-18T05:26:51;27.33;24.33;18.00
62547;PMS7003;48602;45.192;5.722;2022-12-18T05:29:17;23.33;20.00;15.67
62547;PMS7003;48602;45.192;5.722;2022-12-18T05:31:42;26.67;21.00;14.67
62547;PMS7003;48602;45.192;5.722;2022-12-18T05:34:07;30.00;24.67;17.00
62547;PMS7003;48602;45.192;5.722;2022-12-18T05:36:33;25.67;22.33;16.33
62547;PMS7003;48602;45.192;5.722;2022-12-18T05:38:59;36.00;26.33;20.00
62547;PMS7003;48602;45.192;5.722;2022-12-18T05:41:25;29.00;28.33;21.67
62547;PMS7003;48602;45.192;5.722;2022-12-18T05:43:51;36.33;28.67;21.00
62547;PMS7003;48602;45.192;5.722;2022-12-18T05:46:16;31.33;27.33;20.00
62547;PMS7003;48602;45.192;5.722;2022-12-18T05:48:43;21.67;19.00;13.67
62547;PMS7003;48602;45.192;5.722;2022-12-18T05:51:13;33.00;28.33;20.67
62547;PMS7003;48602;45.192;5.722;2022-12-18T05:53:40;27.33;27.33;18.33
62547;PMS7003;48602;45.192;5.722;2022-12-18T05:56:08;29.67;25.33;20.00
62547;PMS7003;48602;45.192;5.722;2022-12-18T05:58:35;31.00;28.00;20.00
62547;PMS7003;48602;45.192;5.722;2022-12-18T06:03:37;34.67;31.67;22.67
62547;PMS7003;48602;45.192;5.722;2022-12-18T06:06:03;36.33;31.00;21.00
62547;PMS7003;48602;45.192;5.722;2022-12-18T06:08:28;35.33;32.00;22.67
62547;PMS7003;48602;45.192;5.722;2022-12-18T06:10:54;31.33;29.00;21.33
62547;PMS7003;48602;45.192;5.722;2022-12-18T06:13:19;32.00;23.33;18.00
62547;PMS7003;48602;45.192;5.722;2022-12-18T06:15:45;32.33;30.00;18.67
62547;PMS7003;48602;45.192;5.722;2022-12-18T06:18:10;35.00;30.33;22.33
62547;PMS7003;48602;45.192;5.722;2022-12-18T06:20:36;41.33;33.67;24.67
62547;PMS7003;48602;45.192;5.722;2022-12-18T06:23:04;33.00;29.67;20.67
62547;PMS7003;48602;45.192;5.722;2022-12-18T06:25:30;25.67;24.33;17.00
62547;PMS7003;48602;45.192;5.722;2022-12-18T06:27:55;36.33;31.00;23.00
62547;PMS7003;48602;45.192;5.722;2022-12-18T06:30:21;38.67;35.33;27.00
62547;PMS7003;48602;45.192;5.722;2022-12-18T06:32:47;34.00;31.33;22.67
62547;PMS7003;48602;45.192;5.722;2022-12-18T06:35:14;44.67;33.67;23.67
62547;PMS7003;48602;45.192;5.722;2022-12-18T06:37:39;40.33;34.67;25.67
62547;PMS7003;48602;45.192;5.722;2022-12-18T06:40:05;39.33;29.00;24.33
62547;PMS7003;48602;45.192;5.722;2022-12-18T06:42:31;39.67;35.00;25.67
62547;PMS7003;48602;45.192;5.722;2022-12-18T06:44:57;35.33;35.00;24.00
62547;PMS7003;48602;45.192;5.722;2022-12-18T06:47:22;39.67;33.67;25.00
62547;PMS7003;48602;45.192;5.722;2022-12-18T06:49:48;44.67;36.33;25.67
62547;PMS7003;48602;45.192;5.722;2022-12-18T06:52:13;37.33;36.33;26.33
62547;PMS7003;48602;45.192;5.722;2022-12-18T06:54:41;47.00;31.00;19.67
62547;PMS7003;48602;45.192;5.722;2022-12-18T06:57:07;45.33;41.00;29.00
62547;PMS7003;48602;45.192;5.722;2022-12-18T06:59:33;44.00;38.67;26.33
62547;PMS7003;48602;45.192;5.722;2022-12-18T07:01:58;40.00;38.67;26.67
62547;PMS7003;48602;45.192;5.722;2022-12-18T07:04:27;46.67;41.33;27.00
62547;PMS7003;48602;45.192;5.722;2022-12-18T07:06:55;40.67;35.67;27.00
62547;PMS7003;48602;45.192;5.722;2022-12-18T07:09:21;34.33;28.67;19.33
62547;PMS7003;48602;45.192;5.722;2022-12-18T07:11:46;50.00;41.33;27.67
62547;PMS7003;48602;45.192;5.722;2022-12-18T07:14:11;41.67;38.00;23.67
62547;PMS7003;48602;45.192;5.722;2022-12-18T07:16:37;37.67;30.67;23.33
62547;PMS7003;48602;45.192;5.722;2022-12-18T07:19:02;41.67;38.67;25.33
62547;PMS7003;48602;45.192;5.722;2022-12-18T07:21:37;50.00;38.00;25.00
62547;PMS7003;48602;45.192;5.722;2022-12-18T07:24:03;44.33;35.00;24.33
62547;PMS7003;48602;45.192;5.722;2022-12-18T07:26:28;33.00;31.00;22.00
62547;PMS7003;48602;45.192;5.722;2022-12-18T07:28:54;38.67;37.67;26.67
62547;PMS7003;48602;45.192;5.722;2022-12-18T07:31:22;39.00;35.33;25.33
62547;PMS7003;48602;45.192;5.722;2022-12-18T07:33:48;45.00;37.67;27.33
62547;PMS7003;48602;45.192;5.722;2022-12-18T07:36:15;39.67;34.33;25.67
62547;PMS7003;48602;45.192;5.722;2022-12-18T07:38:41;49.67;38.67;28.33
62547;PMS7003;48602;45.192;5.722;2022-12-18T07:41:07;43.00;39.67;27.67
62547;PMS7003;48602;45.192;5.722;2022-12-18T07:43:35;41.33;38.33;24.33
62547;PMS7003;48602;45.192;5.722;2022-12-18T07:46:04;37.67;33.00;25.67
62547;PMS7003;48602;45.192;5.722;2022-12-18T07:48:31;39.00;35.67;26.33
62547;PMS7003;48602;45.192;5.722;2022-12-18T07:51:03;41.67;36.67;27.00
62547;PMS7003;48602;45.192;5.722;2022-12-18T07:53:30;48.33;39.33;27.67
62547;PMS7003;48602;45.192;5.722;2022-12-18T07:55:57;43.33;36.33;25.33
62547;PMS7003;48602;45.192;5.722;2022-12-18T07:58:23;54.33;40.33;27.67
62547;PMS7003;48602;45.192;5.722;2022-12-18T08:00:49;45.67;40.67;27.33
62547;PMS7003;48602;45.192;5.722;2022-12-18T08:03:15;48.00;41.33;29.67
62547;PMS7003;48602;45.192;5.722;2022-12-18T08:05:41;51.67;40.33;29.33
62547;PMS7003;48602;45.192;5.722;2022-12-18T08:08:06;44.33;40.00;27.00
62547;PMS7003;48602;45.192;5.722;2022-12-18T08:10:31;41.33;35.33;25.67
62547;PMS7003;48602;45.192;5.722;2022-12-18T08:12:57;28.67;25.00;14.33
62547;PMS7003;48602;45.192;5.722;2022-12-18T08:15:23;38.33;32.00;21.67
62547;PMS7003;48602;45.192;5.722;2022-12-18T08:17:48;31.33;27.67;20.00
62547;PMS7003;48602;45.192;5.722;2022-12-18T08:20:13;37.00;33.33;21.00
62547;PMS7003;48602;45.192;5.722;2022-12-18T08:22:40;27.67;21.00;14.00
62547;PMS7003;48602;45.192;5.722;2022-12-18T08:25:06;38.00;32.00;22.50
62547;PMS7003;48602;45.192;5.722;2022-12-18T08:27:32;33.67;32.00;21.33
62547;PMS7003;48602;45.192;5.722;2022-12-18T08:29:58;31.67;26.00;18.00
62547;PMS7003;48602;45.192;5.722;2022-12-18T08:32:24;31.00;25.00;20.67
62547;PMS7003;48602;45.192;5.722;2022-12-18T08:34:50;37.67;31.67;22.33
62547;PMS7003;48602;45.192;5.722;2022-12-18T08:37:16;30.00;29.00;22.00
62547;PMS7003;48602;45.192;5.722;2022-12-18T08:39:41;26.00;21.33;14.00
62547;PMS7003;48602;45.192;5.722;2022-12-18T08:42:07;29.00;26.33;18.33
62547;PMS7003;48602;45.192;5.722;2022-12-18T08:44:50;35.00;26.67;18.00
62547;PMS7003;48602;45.192;5.722;2022-12-18T08:47:16;30.33;29.67;21.33
62547;PMS7003;48602;45.192;5.722;2022-12-18T08:49:41;35.67;32.00;25.00
62547;PMS7003;48602;45.192;5.722;2022-12-18T08:52:06;36.00;31.67;20.67
62547;PMS7003;48602;45.192;5.722;2022-12-18T08:54:32;37.00;34.00;23.67
62547;PMS7003;48602;45.192;5.722;2022-12-18T08:56:58;25.33;21.67;15.67
62547;PMS7003;48602;45.192;5.722;2022-12-18T08:59:23;59.00;35.67;23.00
62547;PMS7003;48602;45.192;5.722;2022-12-18T09:01:48;50.33;39.67;28.00
62547;PMS7003;48602;45.192;5.722;2022-12-18T09:04:14;54.00;41.33;28.67
62547;PMS7003;48602;45.192;5.722;2022-12-18T09:06:40;40.33;38.33;26.33
62547;PMS7003;48602;45.192;5.722;2022-12-18T09:09:06;48.67;42.67;28.00
62547;PMS7003;48602;45.192;5.722;2022-12-18T09:11:33;48.33;39.67;28.00
62547;PMS7003;48602;45.192;5.722;2022-12-18T09:13:59;41.00;38.33;26.00
62547;PMS7003;48602;45.192;5.722;2022-12-18T09:16:26;44.33;39.00;27.00
62547;PMS7003;48602;45.192;5.722;2022-12-18T09:18:53;58.33;42.00;28.33
62547;PMS7003;48602;45.192;5.722;2022-12-18T09:21:24;45.00;41.67;29.33
62547;PMS7003;48602;45.192;5.722;2022-12-18T09:23:51;49.00;42.00;28.33
62547;PMS7003;48602;45.192;5.722;2022-12-18T09:26:18;56.67;46.33;31.67
62547;PMS7003;48602;45.192;5.722;2022-12-18T09:28:44;52.00;40.67;28.33
62547;PMS7003;48602;45.192;5.722;2022-12-18T09:31:10;49.67;42.33;29.00
62547;PMS7003;48602;45.192;5.722;2022-12-18T09:33:39;54.00;41.33;30.33
62547;PMS7003;48602;45.192;5.722;2022-12-18T09:36:06;54.33;45.33;29.67
62547;PMS7003;48602;45.192;5.722;2022-12-18T09:38:33;56.00;43.67;29.33
62547;PMS7003;48602;45.192;5.722;2022-12-18T09:43:57;52.33;41.67;29.33
62547;PMS7003;48602;45.192;5.722;2022-12-18T09:46:27;48.00;39.67;29.33
62547;PMS7003;48602;45.192;5.722;2022-12-18T09:48:56;45.67;39.33;27.67
62547;PMS7003;48602;45.192;5.722;2022-12-18T09:51:27;50.67;41.00;29.00
62547;PMS7003;48602;45.192;5.722;2022-12-18T09:54:11;46.33;39.67;28.33
62547;PMS7003;48602;45.192;5.722;2022-12-18T09:56:43;45.33;40.00;29.00
62547;PMS7003;48602;45.192;5.722;2022-12-18T10:02:11;38.00;34.67;24.67
62547;PMS7003;48602;45.192;5.722;2022-12-18T10:04:39;37.00;32.00;24.00
62547;PMS7003;48602;45.192;5.722;2022-12-18T10:07:10;48.00;40.67;26.33
62547;PMS7003;48602;45.192;5.722;2022-12-18T10:09:53;39.00;37.33;28.00
62547;PMS7003;48602;45.192;5.722;2022-12-18T10:15:27;38.33;32.67;22.33
62547;PMS7003;48602;45.192;5.722;2022-12-18T10:20:46;48.33;38.33;27.67
62547;PMS7003;48602;45.192;5.722;2022-12-18T10:28:31;45.67;40.33;27.33
62547;PMS7003;48602;45.192;5.722;2022-12-18T10:30:58;34.00;28.33;21.67
62547;PMS7003;48602;45.192;5.722;2022-12-18T10:33:27;31.67;26.33;19.67
62547;PMS7003;48602;45.192;5.722;2022-12-18T10:35:54;42.00;37.33;25.00
62547;PMS7003;48602;45.192;5.722;2022-12-18T10:38:24;37.00;31.00;22.33
62547;PMS7003;48602;45.192;5.722;2022-12-18T10:40:56;36.33;34.00;25.00
62547;PMS7003;48602;45.192;5.722;2022-12-18T10:44:10;41.33;34.33;25.00
62547;PMS7003;48602;45.192;5.722;2022-12-18T10:46:42;37.00;33.67;24.67
62547;PMS7003;48602;45.192;5.722;2022-12-18T10:49:18;48.33;38.67;25.33
62547;PMS7003;48602;45.192;5.722;2022-12-18T10:52:15;39.00;33.00;24.33
62547;PMS7003;48602;45.192;5.722;2022-12-18T10:54:48;44.33;36.33;23.00
62547;PMS7003;48602;45.192;5.722;2022-12-18T10:57:17;42.33;34.33;24.33
62547;PMS7003;48602;45.192;5.722;2022-12-18T10:59:53;33.33;28.00;22.00
62547;PMS7003;48602;45.192;5.722;2022-12-18T11:02:39;29.33;26.67;18.00
62547;PMS7003;48602;45.192;5.722;2022-12-18T11:07:59;32.00;29.33;22.00
62547;PMS7003;48602;45.192;5.722;2022-12-18T11:10:35;31.00;29.33;22.00
62547;PMS7003;48602;45.192;5.722;2022-12-18T11:13:10;33.67;31.00;20.67
62547;PMS7003;48602;45.192;5.722;2022-12-18T11:15:43;33.00;26.33;20.33
62547;PMS7003;48602;45.192;5.722;2022-12-18T11:18:16;29.33;27.00;19.33
62547;PMS7003;48602;45.192;5.722;2022-12-18T11:20:43;22.00;20.33;16.67
62547;PMS7003;48602;45.192;5.722;2022-12-18T11:23:16;23.33;18.67;14.00
62547;PMS7003;48602;45.192;5.722;2022-12-18T11:25:55;35.33;27.33;19.33
62547;PMS7003;48602;45.192;5.722;2022-12-18T11:33:42;32.00;23.00;15.33
62547;PMS7003;48602;45.192;5.722;2022-12-18T11:36:12;26.33;21.67;17.00
62547;PMS7003;48602;45.192;5.722;2022-12-18T11:38:39;33.00;26.33;19.67
62547;PMS7003;48602;45.192;5.722;2022-12-18T11:41:27;32.00;28.00;21.33
62547;PMS7003;48602;45.192;5.722;2022-12-18T11:44:24;20.33;18.00;15.33
62547;PMS7003;48602;45.192;5.722;2022-12-18T11:46:55;26.67;22.33;16.33
62547;PMS7003;48602;45.192;5.722;2022-12-18T11:49:28;28.33;25.33;20.33
62547;PMS7003;48602;45.192;5.722;2022-12-18T11:54:40;32.33;26.00;18.67
62547;PMS7003;48602;45.192;5.722;2022-12-18T12:16:57;32.00;26.00;20.67
62547;PMS7003;48602;45.192;5.722;2022-12-18T12:22:06;34.33;26.33;20.33
62547;PMS7003;48602;45.192;5.722;2022-12-18T12:30:20;35.00;30.33;19.33
62547;PMS7003;48602;45.192;5.722;2022-12-18T12:33:13;32.33;28.33;20.00
62547;PMS7003;48602;45.192;5.722;2022-12-18T12:38:42;29.33;26.67;22.00
62547;PMS7003;48602;45.192;5.722;2022-12-18T12:41:16;34.00;31.00;24.00
62547;PMS7003;48602;45.192;5.722;2022-12-18T12:44:08;31.33;28.67;22.33
62547;PMS7003;48602;45.192;5.722;2022-12-18T12:46:39;34.33;30.67;23.67
62547;PMS7003;48602;45.192;5.722;2022-12-18T12:49:09;39.33;33.33;24.00
62547;PMS7003;48602;45.192;5.722;2022-12-18T12:51:43;39.67;36.00;25.67
62547;PMS7003;48602;45.192;5.722;2022-12-18T12:54:19;41.00;36.00;26.00
62547;PMS7003;48602;45.192;5.722;2022-12-18T12:57:05;34.00;32.67;24.00
62547;PMS7003;48602;45.192;5.722;2022-12-18T13:02:33;33.00;30.00;19.67
62547;PMS7003;48602;45.192;5.722;2022-12-18T13:08:27;34.67;31.67;21.33
62547;PMS7003;48602;45.192;5.722;2022-12-18T13:10:54;32.67;30.33;22.33
62547;PMS7003;48602;45.192;5.722;2022-12-18T13:13:54;37.67;34.33;24.00
62547;PMS7003;48602;45.192;5.722;2022-12-18T13:16:24;30.00;27.00;20.67
62547;PMS7003;48602;45.192;5.722;2022-12-18T13:18:55;25.67;23.67;19.67
62547;PMS7003;48602;45.192;5.722;2022-12-18T13:23:52;33.00;29.67;21.00
62547;PMS7003;48602;45.192;5.722;2022-12-18T13:31:15;34.67;29.00;22.00
62547;PMS7003;48602;45.192;5.722;2022-12-18T13:34:18;32.67;31.33;23.00
62547;PMS7003;48602;45.192;5.722;2022-12-18T13:36:53;35.33;32.67;23.00
62547;PMS7003;48602;45.192;5.722;2022-12-18T13:39:21;39.33;33.33;23.67
62547;PMS7003;48602;45.192;5.722;2022-12-18T13:47:01;28.00;25.00;19.33
62547;PMS7003;48602;45.192;5.722;2022-12-18T13:49:41;28.67;24.67;19.00
62547;PMS7003;48602;45.192;5.722;2022-12-18T13:52:18;35.67;30.67;22.00
62547;PMS7003;48602;45.192;5.722;2022-12-18T13:54:49;28.67;28.33;20.00
62547;PMS7003;48602;45.192;5.722;2022-12-18T14:00:16;34.67;26.33;20.67
62547;PMS7003;48602;45.192;5.722;2022-12-18T14:02:45;25.33;23.33;18.67
62547;PMS7003;48602;45.192;5.722;2022-12-18T14:08:01;27.67;26.33;19.67
62547;PMS7003;48602;45.192;5.722;2022-12-18T14:10:31;28.67;23.67;18.33
62547;PMS7003;48602;45.192;5.722;2022-12-18T14:12:58;29.67;25.33;17.67
62547;PMS7003;48602;45.192;5.722;2022-12-18T14:15:44;24.67;21.33;15.67
62547;PMS7003;48602;45.192;5.722;2022-12-18T14:21:23;27.00;25.00;17.33
62547;PMS7003;48602;45.192;5.722;2022-12-18T14:24:04;24.33;21.67;18.00
62547;PMS7003;48602;45.192;5.722;2022-12-18T14:26:41;25.33;25.33;18.33
62547;PMS7003;48602;45.192;5.722;2022-12-18T14:29:26;27.00;25.00;16.33
62547;PMS7003;48602;45.192;5.722;2022-12-18T14:32:07;21.67;21.67;19.00
62547;PMS7003;48602;45.192;5.722;2022-12-18T14:34:34;24.67;21.00;15.67
62547;PMS7003;48602;45.192;5.722;2022-12-18T14:37:00;23.00;21.00;16.00
62547;PMS7003;48602;45.192;5.722;2022-12-18T14:39:25;20.00;18.00;14.00
62547;PMS7003;48602;45.192;5.722;2022-12-18T14:41:51;23.00;19.33;15.00
62547;PMS7003;48602;45.192;5.722;2022-12-18T14:44:17;23.33;21.00;14.00
62547;PMS7003;48602;45.192;5.722;2022-12-18T14:46:43;29.00;24.67;17.00
62547;PMS7003;48602;45.192;5.722;2022-12-18T14:49:25;29.33;24.67;19.67
62547;PMS7003;48602;45.192;5.722;2022-12-18T14:51:55;33.33;23.67;15.00
62547;PMS7003;48602;45.192;5.722;2022-12-18T14:54:23;28.67;22.33;17.33
62547;PMS7003;48602;45.192;5.722;2022-12-18T14:57:20;30.67;24.67;18.00
62547;PMS7003;48602;45.192;5.722;2022-12-18T14:59:48;25.00;23.67;16.00
62547;PMS7003;48602;45.192;5.722;2022-12-18T15:02:25;40.00;31.67;22.67
62547;PMS7003;48602;45.192;5.722;2022-12-18T15:07:27;29.33;28.67;20.67
62547;PMS7003;48602;45.192;5.722;2022-12-18T15:12:33;28.67;25.67;17.33
62547;PMS7003;48602;45.192;5.722;2022-12-18T15:15:02;29.00;26.67;20.33
62547;PMS7003;48602;45.192;5.722;2022-12-18T15:17:29;31.33;23.00;19.00
62547;PMS7003;48602;45.192;5.722;2022-12-18T15:20:02;30.33;25.33;19.67
62547;PMS7003;48602;45.192;5.722;2022-12-18T15:22:34;31.00;30.33;23.67
62547;PMS7003;48602;45.192;5.722;2022-12-18T15:25:01;27.33;24.67;19.33
62547;PMS7003;48602;45.192;5.722;2022-12-18T15:30:15;29.33;24.33;20.33
62547;PMS7003;48602;45.192;5.722;2022-12-18T15:32:43;31.33;26.33;20.67
62547;PMS7003;48602;45.192;5.722;2022-12-18T15:37:39;31.33;30.00;23.00
62547;PMS7003;48602;45.192;5.722;2022-12-18T15:40:06;32.33;31.00;23.67
62547;PMS7003;48602;45.192;5.722;2022-12-18T15:42:33;35.67;31.67;23.67
62547;PMS7003;48602;45.192;5.722;2022-12-18T15:45:17;32.33;28.33;22.00
62547;PMS7003;48602;45.192;5.722;2022-12-18T15:47:43;30.00;28.33;22.67
62547;PMS7003;48602;45.192;5.722;2022-12-18T15:50:08;31.33;30.00;22.33
62547;PMS7003;48602;45.192;5.722;2022-12-18T15:52:41;32.00;29.00;21.33
62547;PMS7003;48602;45.192;5.722;2022-12-18T15:55:11;33.67;30.00;21.00
62547;PMS7003;48602;45.192;5.722;2022-12-18T15:58:00;34.00;29.67;22.67
62547;PMS7003;48602;45.192;5.722;2022-12-18T16:00:25;31.00;27.67;19.33
62547;PMS7003;48602;45.192;5.722;2022-12-18T16:02:51;41.67;35.33;25.00
62547;PMS7003;48602;45.192;5.722;2022-12-18T16:05:18;32.67;30.33;22.00
62547;PMS7003;48602;45.192;5.722;2022-12-18T16:07:45;32.33;30.00;22.00
62547;PMS7003;48602;45.192;5.722;2022-12-18T16:10:11;32.33;27.00;22.67